createdAt,value
2018-01-29T00:00:23.902Z,8.90
2018-01-29T00:02:51.446Z,8.80
2018-01-29T00:05:19.059Z,8.90
2018-01-29T00:07:47.267Z,8.90
2018-01-29T00:10:14.706Z,8.90
2018-01-29T00:12:42.231Z,8.90
2018-01-29T00:15:09.658Z,8.90
2018-01-29T00:17:37.144Z,8.90
2018-01-29T00:20:04.646Z,9.00
2018-01-29T00:22:32.084Z,8.90
2018-01-29T00:24:59.551Z,8.90
2018-01-29T00:27:27.007Z,8.90
2018-01-29T00:29:54.455Z,8.90
2018-01-29T00:32:21.956Z,8.90
2018-01-29T00:34:51.102Z,8.90
2018-01-29T00:37:18.549Z,8.90
2018-01-29T00:39:46.004Z,9.00
2018-01-29T00:42:13.459Z,8.90
2018-01-29T00:47:31.459Z,9.00
2018-01-29T00:49:58.988Z,9.00
2018-01-29T00:52:26.510Z,9.00
2018-01-29T00:54:54.811Z,8.90
2018-01-29T00:57:22.370Z,9.00
2018-01-29T00:59:49.898Z,8.90
2018-01-29T01:02:18.181Z,9.00
2018-01-29T01:04:46.444Z,9.00
2018-01-29T01:07:13.969Z,9.00
2018-01-29T01:09:41.471Z,9.00
2018-01-29T01:12:09.747Z,9.00
2018-01-29T01:14:38.014Z,9.10
2018-01-29T01:17:06.306Z,9.00
2018-01-29T01:19:33.720Z,9.00
2018-01-29T01:22:01.976Z,9.10
2018-01-29T01:24:29.412Z,9.00
2018-01-29T01:26:57.017Z,9.00
2018-01-29T01:29:24.696Z,9.10
2018-01-29T01:31:52.305Z,9.10
2018-01-29T01:34:19.832Z,9.10
2018-01-29T01:36:47.529Z,9.10
2018-01-29T01:39:15.092Z,9.10
2018-01-29T01:41:42.651Z,9.10
2018-01-29T01:44:10.144Z,9.00
2018-01-29T01:46:37.716Z,9.00
2018-01-29T01:49:05.359Z,9.00
2018-01-29T01:51:32.924Z,9.00
2018-01-29T01:54:01.040Z,9.00
2018-01-29T01:56:28.659Z,9.00
2018-01-29T01:58:56.205Z,9.00
2018-01-29T02:01:23.778Z,9.00
2018-01-29T02:03:51.318Z,9.10
2018-01-29T02:06:18.866Z,9.00
2018-01-29T02:08:46.536Z,9.00
2018-01-29T02:11:13.974Z,9.10
2018-01-29T02:13:42.200Z,9.10
2018-01-29T02:16:09.670Z,9.00
2018-01-29T02:18:37.991Z,9.10
2018-01-29T02:21:05.439Z,9.10
2018-01-29T02:23:32.982Z,9.10
2018-01-29T02:26:01.281Z,9.10
2018-01-29T02:28:29.531Z,9.10
2018-01-29T02:30:57.020Z,9.00
2018-01-29T02:33:24.461Z,9.10
2018-01-29T02:35:51.918Z,9.10
2018-01-29T02:38:19.374Z,9.10
2018-01-29T02:40:47.609Z,9.00
2018-01-29T02:43:15.090Z,9.00
2018-01-29T02:45:42.548Z,9.00
2018-01-29T02:48:10.007Z,9.00
2018-01-29T02:50:37.484Z,9.00
2018-01-29T02:53:04.983Z,9.10
2018-01-29T02:55:32.443Z,9.10
2018-01-29T02:57:59.901Z,9.20
2018-01-29T03:00:27.352Z,9.10
2018-01-29T03:02:55.578Z,9.00
2018-01-29T03:05:23.022Z,9.00
2018-01-29T03:07:51.251Z,9.00
2018-01-29T03:10:18.720Z,9.00
2018-01-29T03:12:46.192Z,9.00
2018-01-29T03:15:13.635Z,9.00
2018-01-29T03:17:41.879Z,9.00
2018-01-29T03:20:09.339Z,8.90
2018-01-29T03:22:36.776Z,9.00
2018-01-29T03:25:05.012Z,9.00
2018-01-29T03:27:33.183Z,9.00
2018-01-29T03:30:00.639Z,9.00
2018-01-29T03:32:29.513Z,9.00
2018-01-29T03:34:56.982Z,9.00
2018-01-29T03:37:24.423Z,9.10
2018-01-29T03:39:51.880Z,9.10
2018-01-29T03:42:20.075Z,9.10
2018-01-29T03:44:48.315Z,9.10
2018-01-29T03:47:15.756Z,9.10
2018-01-29T03:49:43.227Z,9.20
2018-01-29T03:52:10.668Z,9.20
2018-01-29T03:54:38.136Z,9.20
2018-01-29T03:57:05.599Z,9.10
2018-01-29T03:59:33.144Z,9.00
2018-01-29T04:02:00.589Z,9.00
2018-01-29T04:04:29.330Z,9.00
2018-01-29T04:06:56.903Z,9.00
2018-01-29T04:09:24.365Z,9.00
2018-01-29T04:11:51.840Z,9.00
2018-01-29T04:14:19.283Z,9.00
2018-01-29T04:16:47.511Z,8.90
2018-01-29T04:19:14.972Z,8.90
2018-01-29T04:21:42.484Z,8.90
2018-01-29T04:24:09.950Z,8.90
2018-01-29T04:26:37.388Z,8.90
2018-01-29T04:29:05.606Z,9.00
2018-01-29T04:31:33.051Z,9.00
2018-01-29T04:34:01.289Z,9.10
2018-01-29T04:36:29.479Z,9.10
2018-01-29T04:38:56.971Z,9.10
2018-01-29T04:41:24.515Z,9.10
2018-01-29T04:43:52.010Z,9.10
2018-01-29T04:46:20.955Z,9.20
2018-01-29T04:48:48.414Z,9.20
2018-01-29T04:51:15.847Z,9.10
2018-01-29T04:53:43.297Z,9.10
2018-01-29T04:56:11.511Z,9.20
2018-01-29T04:58:38.979Z,9.10
2018-01-29T05:01:06.454Z,9.10
2018-01-29T05:03:34.663Z,9.20
2018-01-29T05:06:02.147Z,9.10
2018-01-29T05:11:42.948Z,9.10
2018-01-29T05:14:11.035Z,9.00
2018-01-29T05:16:47.483Z,9.00
2018-01-29T05:19:14.972Z,9.00
2018-01-29T05:21:42.423Z,9.00
2018-01-29T05:24:09.869Z,9.00
2018-01-29T05:26:37.309Z,9.10
2018-01-29T05:29:04.775Z,9.10
2018-01-29T05:31:32.275Z,9.10
2018-01-29T05:34:00.595Z,9.10
2018-01-29T05:36:29.886Z,9.00
2018-01-29T05:38:57.940Z,9.10
2018-01-29T05:41:26.159Z,9.10
2018-01-29T05:43:54.356Z,9.10
2018-01-29T05:46:21.824Z,9.00
2018-01-29T05:48:50.057Z,9.00
2018-01-29T05:51:17.510Z,9.00
2018-01-29T05:53:44.963Z,9.00
2018-01-29T05:56:12.423Z,9.00
2018-01-29T05:58:39.868Z,9.00
2018-01-29T06:01:07.332Z,9.00
2018-01-29T06:03:34.795Z,9.00
2018-01-29T06:06:02.234Z,9.00
2018-01-29T06:08:29.701Z,9.00
2018-01-29T06:10:57.950Z,9.00
2018-01-29T06:13:25.531Z,9.10
2018-01-29T06:15:53.018Z,9.10
2018-01-29T06:18:20.474Z,9.10
2018-01-29T06:20:47.915Z,9.10
2018-01-29T06:23:15.398Z,9.10
2018-01-29T06:25:42.829Z,9.10
2018-01-29T06:28:10.271Z,9.10
2018-01-29T06:30:37.741Z,9.10
2018-01-29T06:33:05.207Z,9.20
2018-01-29T06:35:32.650Z,9.10
2018-01-29T06:38:00.104Z,9.10
2018-01-29T06:40:27.577Z,9.10
2018-01-29T06:42:56.367Z,9.10
2018-01-29T06:45:23.826Z,9.10
2018-01-29T06:47:55.288Z,9.10
2018-01-29T06:50:22.746Z,9.10
2018-01-29T06:52:50.201Z,9.00
2018-01-29T06:55:17.684Z,9.00
2018-01-29T06:57:45.128Z,9.00
2018-01-29T07:00:13.345Z,8.90
2018-01-29T07:02:40.939Z,8.90
2018-01-29T07:05:08.402Z,8.90
2018-01-29T07:07:35.909Z,9.00
2018-01-29T07:10:03.336Z,9.00
2018-01-29T07:12:31.563Z,9.00
2018-01-29T07:14:58.994Z,9.00
2018-01-29T07:17:26.486Z,9.00
2018-01-29T07:19:53.929Z,9.00
2018-01-29T07:22:21.387Z,8.90
2018-01-29T07:24:48.818Z,9.00
2018-01-29T07:27:16.301Z,9.00
2018-01-29T07:29:43.731Z,8.90
2018-01-29T07:32:11.191Z,8.90
2018-01-29T07:34:39.387Z,9.00
2018-01-29T07:37:07.635Z,9.10
2018-01-29T07:39:35.116Z,9.00
2018-01-29T07:42:02.601Z,9.10
2018-01-29T07:44:30.101Z,9.10
2018-01-29T07:46:57.581Z,9.10
2018-01-29T07:49:25.075Z,9.10
2018-01-29T07:51:52.482Z,9.10
2018-01-29T07:54:20.491Z,9.20
2018-01-29T07:56:48.025Z,9.20
2018-01-29T07:59:15.516Z,9.20
2018-01-29T08:01:42.955Z,9.20
2018-01-29T08:04:10.514Z,9.20
2018-01-29T08:06:38.763Z,9.20
2018-01-29T08:09:06.252Z,9.20
2018-01-29T08:11:33.710Z,9.30
2018-01-29T08:14:01.208Z,9.30
2018-01-29T08:16:29.137Z,9.30
2018-01-29T08:18:58.362Z,9.40
2018-01-29T08:21:25.901Z,9.40
2018-01-29T08:23:53.336Z,9.40
2018-01-29T08:26:21.040Z,9.50
2018-01-29T08:28:48.521Z,9.50
2018-01-29T08:31:15.992Z,9.50
2018-01-29T08:33:43.447Z,9.50
2018-01-29T08:36:10.940Z,9.50
2018-01-29T08:38:38.403Z,9.50
2018-01-29T08:41:05.869Z,9.50
2018-01-29T08:43:33.352Z,9.60
2018-01-29T08:46:00.946Z,9.70
2018-01-29T08:48:28.472Z,9.70
2018-01-29T08:50:55.965Z,9.70
2018-01-29T08:53:23.463Z,9.80
2018-01-29T08:55:51.014Z,9.90
2018-01-29T08:58:18.543Z,9.90
2018-01-29T09:00:45.964Z,9.90
2018-01-29T09:03:13.449Z,10.00
2018-01-29T09:05:40.900Z,10.00
2018-01-29T09:08:08.388Z,10.00
2018-01-29T09:10:36.632Z,10.00
2018-01-29T09:13:04.096Z,10.00
2018-01-29T09:15:31.595Z,10.10
2018-01-29T09:17:59.086Z,10.20
2018-01-29T09:20:26.634Z,10.10
2018-01-29T09:22:54.931Z,10.20
2018-01-29T09:25:23.272Z,10.20
2018-01-29T09:27:50.750Z,10.20
2018-01-29T09:30:18.821Z,10.30
2018-01-29T09:32:46.350Z,10.30
2018-01-29T09:35:13.936Z,10.40
2018-01-29T09:37:42.228Z,10.40
2018-01-29T09:40:10.028Z,10.40
2018-01-29T09:42:37.564Z,10.40
2018-01-29T09:45:06.329Z,10.40
2018-01-29T09:47:33.877Z,10.40
2018-01-29T09:50:01.457Z,10.40
2018-01-29T09:52:29.106Z,10.50
2018-01-29T09:54:56.695Z,10.50
2018-01-29T09:57:24.357Z,10.50
2018-01-29T09:59:51.957Z,10.50
2018-01-29T10:02:19.892Z,10.40
2018-01-29T10:04:47.616Z,10.40
2018-01-29T10:07:16.710Z,10.40
2018-01-29T10:09:44.659Z,10.50
2018-01-29T10:12:13.120Z,10.50
2018-01-29T10:14:41.053Z,10.50
2018-01-29T10:17:08.593Z,10.60
2018-01-29T10:19:37.069Z,10.60
2018-01-29T10:22:04.721Z,10.60
2018-01-29T10:24:33.476Z,10.60
2018-01-29T10:27:02.598Z,10.70
2018-01-29T10:29:30.557Z,10.70
2018-01-29T10:32:04.970Z,10.70
2018-01-29T10:34:32.832Z,10.70
2018-01-29T10:37:01.852Z,10.80
2018-01-29T10:42:05.282Z,11.00
2018-01-29T10:44:32.940Z,11.10
2018-01-29T10:47:00.418Z,11.10
2018-01-29T10:49:27.888Z,11.10
2018-01-29T10:51:55.340Z,11.00
2018-01-29T10:54:22.991Z,11.00
2018-01-29T10:56:50.675Z,11.00
2018-01-29T10:59:18.301Z,11.10
2018-01-29T11:01:52.239Z,10.90
2018-01-29T11:04:19.697Z,10.90
2018-01-29T11:06:47.162Z,10.90
2018-01-29T11:09:14.620Z,10.90
2018-01-29T11:11:42.098Z,10.80
2018-01-29T11:14:09.544Z,10.80
2018-01-29T11:16:37.183Z,10.90
2018-01-29T11:19:07.038Z,10.80
2018-01-29T11:21:34.717Z,10.80
2018-01-29T11:24:02.712Z,10.80
2018-01-29T11:26:30.480Z,10.80
2018-01-29T11:28:58.723Z,10.70
2018-01-29T11:31:26.696Z,10.70
2018-01-29T11:33:54.353Z,10.70
2018-01-29T11:36:22.660Z,10.70
2018-01-29T11:38:50.424Z,10.80
2018-01-29T11:41:17.889Z,10.90
2018-01-29T11:43:47.565Z,11.00
2018-01-29T11:46:15.337Z,10.90
2018-01-29T11:48:43.861Z,10.80
2018-01-29T11:51:11.345Z,10.90
2018-01-29T11:53:38.941Z,10.80
2018-01-29T11:56:06.382Z,10.80
2018-01-29T11:58:33.857Z,10.90
2018-01-29T12:01:01.285Z,10.90
2018-01-29T12:03:29.537Z,10.90
2018-01-29T12:05:56.982Z,10.90
2018-01-29T12:08:24.451Z,10.90
2018-01-29T12:10:51.902Z,10.90
2018-01-29T12:13:19.383Z,11.00
2018-01-29T12:15:47.474Z,11.00
2018-01-29T12:18:14.986Z,11.00
2018-01-29T12:20:42.457Z,10.90
2018-01-29T12:23:09.913Z,10.90
2018-01-29T12:25:37.517Z,10.90
2018-01-29T12:28:04.913Z,10.90
2018-01-29T12:30:32.372Z,10.90
2018-01-29T12:32:59.833Z,10.80
2018-01-29T12:35:27.358Z,10.90
2018-01-29T12:37:54.826Z,10.80
2018-01-29T12:40:22.286Z,10.90
2018-01-29T12:42:49.771Z,10.90
2018-01-29T12:45:18.007Z,11.00
2018-01-29T12:47:45.473Z,11.00
2018-01-29T12:50:12.962Z,10.90
2018-01-29T12:52:41.224Z,11.00
2018-01-29T12:55:08.672Z,11.00
2018-01-29T12:57:36.148Z,11.10
2018-01-29T13:00:04.356Z,11.20
2018-01-29T13:02:31.856Z,11.20
2018-01-29T13:04:59.300Z,11.20
2018-01-29T13:07:27.027Z,11.20
2018-01-29T13:09:54.484Z,11.20
2018-01-29T13:12:21.939Z,11.10
2018-01-29T13:14:49.427Z,11.00
2018-01-29T13:17:17.653Z,11.00
2018-01-29T13:19:45.699Z,11.00
2018-01-29T13:22:13.268Z,11.00
2018-01-29T13:24:41.532Z,11.10
2018-01-29T13:27:09.012Z,11.00
2018-01-29T13:29:36.487Z,11.10
2018-01-29T13:32:03.923Z,11.00
2018-01-29T13:34:31.406Z,11.10
2018-01-29T13:36:58.931Z,11.00
2018-01-29T13:39:27.214Z,11.00
2018-01-29T13:41:55.422Z,11.00
2018-01-29T13:44:22.909Z,11.00
2018-01-29T13:46:50.363Z,11.00
2018-01-29T13:49:17.838Z,11.10
2018-01-29T13:51:46.063Z,11.20
2018-01-29T13:54:13.597Z,11.10
2018-01-29T13:56:41.059Z,11.10
2018-01-29T13:59:08.509Z,11.10
2018-01-29T14:01:35.993Z,11.00
2018-01-29T14:04:03.440Z,11.10
2018-01-29T14:06:31.038Z,11.00
2018-01-29T14:08:58.511Z,10.90
2018-01-29T14:11:26.747Z,11.00
2018-01-29T14:13:54.209Z,11.00
2018-01-29T14:16:21.703Z,11.00
2018-01-29T14:18:49.956Z,11.00
2018-01-29T14:21:17.439Z,11.00
2018-01-29T14:23:45.649Z,11.00
2018-01-29T14:26:13.143Z,11.00
2018-01-29T14:28:40.774Z,11.00
2018-01-29T14:31:08.326Z,11.00
2018-01-29T14:33:35.808Z,11.00
2018-01-29T14:36:03.248Z,11.00
2018-01-29T14:38:30.722Z,11.00
2018-01-29T14:40:58.173Z,11.00
2018-01-29T14:43:25.651Z,11.00
2018-01-29T14:45:53.927Z,10.90
2018-01-29T14:48:21.387Z,10.90
2018-01-29T14:50:49.600Z,10.90
2018-01-29T14:53:17.114Z,10.90
2018-01-29T14:55:44.555Z,10.90
2018-01-29T15:00:48.264Z,11.00
2018-01-29T15:03:15.728Z,11.00
2018-01-29T15:05:43.207Z,11.00
2018-01-29T15:08:11.490Z,10.90
2018-01-29T15:10:39.716Z,10.90
2018-01-29T15:13:07.186Z,10.90
2018-01-29T15:15:34.655Z,10.90
2018-01-29T15:18:02.102Z,10.90
2018-01-29T15:20:29.566Z,10.90
2018-01-29T15:22:57.009Z,10.90
2018-01-29T15:25:24.483Z,10.90
2018-01-29T15:27:52.717Z,10.80
2018-01-29T15:30:20.192Z,10.90
2018-01-29T15:32:47.643Z,10.70
2018-01-29T15:35:15.224Z,10.80
2018-01-29T15:37:42.668Z,10.70
2018-01-29T15:40:10.389Z,10.80
2018-01-29T15:42:38.696Z,10.80
2018-01-29T15:45:06.178Z,10.70
2018-01-29T15:47:33.663Z,10.70
2018-01-29T15:50:01.120Z,10.80
2018-01-29T15:52:28.597Z,10.70
2018-01-29T15:54:56.057Z,10.80
2018-01-29T15:57:23.532Z,10.80
2018-01-29T15:59:50.984Z,10.70
2018-01-29T16:02:18.490Z,10.70
2018-01-29T16:04:46.704Z,10.80
2018-01-29T16:07:14.193Z,10.80
2018-01-29T16:09:41.677Z,10.70
2018-01-29T16:12:09.914Z,10.80
2018-01-29T16:14:37.422Z,10.70
2018-01-29T16:17:04.896Z,10.80
2018-01-29T16:19:32.355Z,10.80
2018-01-29T16:21:59.854Z,10.80
2018-01-29T16:24:27.294Z,10.80
2018-01-29T16:26:54.768Z,10.80
2018-01-29T16:29:22.271Z,10.80
2018-01-29T16:31:49.774Z,10.80
2018-01-29T16:34:17.303Z,10.80
2018-01-29T16:36:44.776Z,10.90
2018-01-29T16:39:12.259Z,10.80
2018-01-29T16:41:39.739Z,10.80
2018-01-29T16:44:07.219Z,10.90
2018-01-29T16:46:34.807Z,10.80
2018-01-29T16:49:02.259Z,10.80
2018-01-29T16:51:29.727Z,10.90
2018-01-29T16:53:57.221Z,10.90
2018-01-29T16:56:25.443Z,10.90
2018-01-29T16:58:52.903Z,10.90
2018-01-29T17:01:20.384Z,10.90
2018-01-29T17:03:47.830Z,10.90
2018-01-29T17:06:15.305Z,10.90
2018-01-29T17:08:43.568Z,10.90
2018-01-29T17:11:11.747Z,10.90
2018-01-29T17:13:39.257Z,10.80
2018-01-29T17:16:06.755Z,10.90
2018-01-29T17:18:34.217Z,10.80
2018-01-29T17:21:01.690Z,10.80
2018-01-29T17:23:29.925Z,10.80
2018-01-29T17:25:57.383Z,10.80
2018-01-29T17:28:24.842Z,10.90
2018-01-29T17:30:52.337Z,10.90
2018-01-29T17:33:20.555Z,10.90
2018-01-29T17:35:48.067Z,10.80
2018-01-29T17:38:16.303Z,10.80
2018-01-29T17:40:43.956Z,10.80
2018-01-29T17:43:11.423Z,10.90
2018-01-29T17:45:38.882Z,10.80
2018-01-29T17:48:06.840Z,10.80
2018-01-29T17:50:34.291Z,10.80
2018-01-29T17:53:01.797Z,10.80
2018-01-29T17:55:29.720Z,10.80
2018-01-29T17:57:57.254Z,10.70
2018-01-29T18:00:24.803Z,10.80
2018-01-29T18:02:52.306Z,10.70
2018-01-29T18:05:19.866Z,10.70
2018-01-29T18:07:47.432Z,10.70
2018-01-29T18:10:14.882Z,10.70
2018-01-29T18:12:42.459Z,10.70
2018-01-29T18:15:09.955Z,10.70
2018-01-29T18:17:37.973Z,10.70
2018-01-29T18:20:05.504Z,10.70
2018-01-29T18:22:33.061Z,10.70
2018-01-29T18:25:00.676Z,10.70
2018-01-29T18:27:28.156Z,10.70
2018-01-29T18:29:55.682Z,10.70
2018-01-29T18:32:23.932Z,10.70
2018-01-29T18:34:51.375Z,10.70
2018-01-29T18:37:18.977Z,10.70
2018-01-29T18:39:46.455Z,10.60
2018-01-29T18:42:13.908Z,10.60
2018-01-29T18:44:41.435Z,10.70
2018-01-29T18:47:09.676Z,10.70
2018-01-29T18:49:37.190Z,10.70
2018-01-29T18:52:05.454Z,10.70
2018-01-29T18:54:33.722Z,10.60
2018-01-29T18:57:01.966Z,10.60
2018-01-29T18:59:30.188Z,10.70
2018-01-29T19:01:57.653Z,10.70
2018-01-29T19:04:25.113Z,10.70
2018-01-29T19:06:52.683Z,10.70
2018-01-29T19:09:20.165Z,10.70
2018-01-29T19:11:47.612Z,10.60
2018-01-29T19:14:15.080Z,10.70
2018-01-29T19:16:42.537Z,10.70
2018-01-29T19:19:10.101Z,10.60
2018-01-29T19:21:37.574Z,10.60
2018-01-29T19:24:05.850Z,10.60
2018-01-29T19:26:33.296Z,10.60
2018-01-29T19:29:00.784Z,10.60
2018-01-29T19:31:28.239Z,10.70
2018-01-29T19:33:55.722Z,10.60
2018-01-29T19:36:23.174Z,10.60
2018-01-29T19:38:50.685Z,10.60
2018-01-29T19:41:18.132Z,10.60
2018-01-29T19:43:45.621Z,10.60
2018-01-29T19:46:13.183Z,10.60
2018-01-29T19:48:40.659Z,10.50
2018-01-29T19:51:08.118Z,10.50
2018-01-29T19:53:35.587Z,10.40
2018-01-29T19:56:03.087Z,10.30
2018-01-29T19:58:30.541Z,10.30
2018-01-29T20:00:58.766Z,10.20
2018-01-29T20:03:26.260Z,10.20
2018-01-29T20:05:53.751Z,10.30
2018-01-29T20:08:21.252Z,10.30
2018-01-29T20:10:48.703Z,10.30
2018-01-29T20:13:16.196Z,10.30
2018-01-29T20:15:44.453Z,10.30
2018-01-29T20:18:12.139Z,10.30
2018-01-29T20:20:40.411Z,10.30
2018-01-29T20:23:07.872Z,10.30
2018-01-29T20:25:36.855Z,10.30
2018-01-29T20:28:04.354Z,10.30
2018-01-29T20:30:31.827Z,10.30
2018-01-29T20:32:59.346Z,10.30
2018-01-29T20:35:26.931Z,10.20
2018-01-29T20:37:55.237Z,10.20
2018-01-29T20:40:22.680Z,10.20
2018-01-29T20:42:50.205Z,10.20
2018-01-29T20:45:17.669Z,10.10
2018-01-29T20:47:45.134Z,10.10
2018-01-29T20:50:13.052Z,10.10
2018-01-29T20:52:41.512Z,10.10
2018-01-29T20:55:08.958Z,10.10
2018-01-29T20:57:36.400Z,10.10
2018-01-29T21:00:03.874Z,10.10
2018-01-29T21:02:31.358Z,10.10
2018-01-29T21:04:58.825Z,10.20
2018-01-29T21:07:27.075Z,10.20
2018-01-29T21:09:54.545Z,10.20
2018-01-29T21:12:22.756Z,10.20
2018-01-29T21:14:50.220Z,10.20
2018-01-29T21:17:17.711Z,10.20
2018-01-29T21:19:46.072Z,10.10
2018-01-29T21:22:14.406Z,10.10
2018-01-29T21:24:42.105Z,10.10
2018-01-29T21:27:09.559Z,10.10
2018-01-29T21:29:37.055Z,10.10
2018-01-29T21:32:04.565Z,10.10
2018-01-29T21:34:32.041Z,10.00
2018-01-29T21:36:59.622Z,10.00
2018-01-29T21:39:27.179Z,10.00
2018-01-29T21:41:54.615Z,10.00
2018-01-29T21:44:22.092Z,9.90
2018-01-29T21:46:49.671Z,10.00
2018-01-29T21:49:17.925Z,10.00
2018-01-29T21:51:45.377Z,9.90
2018-01-29T21:54:12.831Z,10.00
2018-01-29T21:56:40.311Z,10.00
2018-01-29T21:59:07.777Z,9.90
2018-01-29T22:01:35.266Z,9.90
2018-01-29T22:04:02.724Z,9.80
2018-01-29T22:06:30.185Z,9.80
2018-01-29T22:08:57.620Z,9.80
2018-01-29T22:11:25.076Z,9.70
2018-01-29T22:13:52.533Z,9.70
2018-01-29T22:16:20.010Z,9.60
2018-01-29T22:18:47.495Z,9.60
2018-01-29T22:21:14.966Z,9.50
2018-01-29T22:23:42.470Z,9.50
2018-01-29T22:26:09.939Z,9.50
2018-01-29T22:28:37.383Z,9.60
2018-01-29T22:31:04.863Z,9.40
2018-01-29T22:33:32.501Z,9.40
2018-01-29T22:35:59.965Z,9.30
2018-01-29T22:38:27.472Z,9.30
2018-01-29T22:40:55.726Z,9.20
2018-01-29T22:43:23.199Z,9.30
2018-01-29T22:45:51.422Z,9.30
2018-01-29T22:48:18.896Z,9.30
2018-01-29T22:50:47.107Z,9.20
2018-01-29T22:53:14.565Z,9.20
2018-01-29T22:55:42.063Z,9.20
2018-01-29T22:58:09.534Z,9.20
2018-01-29T23:00:36.973Z,9.20
2018-01-29T23:03:04.443Z,9.20
2018-01-29T23:05:31.886Z,9.20
2018-01-29T23:08:00.128Z,9.20
2018-01-29T23:10:27.651Z,9.20
2018-01-29T23:12:55.084Z,9.20
2018-01-29T23:15:22.539Z,9.20
2018-01-29T23:17:50.089Z,9.10
2018-01-29T23:20:18.221Z,9.10
2018-01-29T23:22:45.648Z,9.00
2018-01-29T23:25:13.204Z,9.10
2018-01-29T23:27:40.648Z,9.10
2018-01-29T23:30:08.137Z,9.10
2018-01-29T23:32:35.570Z,9.10
2018-01-29T23:35:03.032Z,9.10
2018-01-29T23:37:30.496Z,9.10
2018-01-29T23:39:57.970Z,9.00
2018-01-29T23:42:26.159Z,9.00
2018-01-29T23:44:53.637Z,8.90
2018-01-29T23:47:21.058Z,8.90
2018-01-29T23:49:49.287Z,9.00
2018-01-29T23:52:16.787Z,9.00
2018-01-29T23:54:45.015Z,8.80
2018-01-29T23:57:12.448Z,8.90
2018-01-29T23:59:39.895Z,8.80
